sensor_id;sensor_type;location;lat;lon;timestamp;temperature;humidity
67273;DHT22;54190;49.770;9.250;2022-10-16T00:01:59;15.60;99.90
67273;DHT22;54190;49.770;9.250;2022-10-16T00:04:24;15.60;99.90
67273;DHT22;54190;49.770;9.250;2022-10-16T00:06:50;15.60;99.90
67273;DHT22;54190;49.770;9.250;2022-10-16T00:09:16;15.60;99.90
67273;DHT22;54190;49.770;9.250;2022-10-16T00:11:42;15.50;99.90
67273;DHT22;54190;49.770;9.250;2022-10-16T00:14:11;15.60;99.90
67273;DHT22;54190;49.770;9.250;2022-10-16T00:16:38;15.60;99.90
67273;DHT22;54190;49.770;9.250;2022-10-16T00:19:04;15.60;99.90
67273;DHT22;54190;49.770;9.250;2022-10-16T00:21:30;15.50;99.90
67273;DHT22;54190;49.770;9.250;2022-10-16T00:24:04;15.50;99.90
67273;DHT22;54190;49.770;9.250;2022-10-16T00:26:32;15.50;99.90
67273;DHT22;54190;49.770;9.250;2022-10-16T00:28:58;15.60;99.90
67273;DHT22;54190;49.770;9.250;2022-10-16T00:31:24;15.60;99.90
67273;DHT22;54190;49.770;9.250;2022-10-16T00:33:51;15.60;99.90
67273;DHT22;54190;49.770;9.250;2022-10-16T00:36:20;15.60;99.90
67273;DHT22;54190;49.770;9.250;2022-10-16T00:38:46;15.60;99.90
67273;DHT22;54190;49.770;9.250;2022-10-16T00:41:17;15.50;99.90
67273;DHT22;54190;49.770;9.250;2022-10-16T00:43:48;15.60;99.90
67273;DHT22;54190;49.770;9.250;2022-10-16T00:48:54;15.50;99.90
67273;DHT22;54190;49.770;9.250;2022-10-16T00:51:24;15.50;99.90
67273;DHT22;54190;49.770;9.250;2022-10-16T00:53:51;15.50;99.90
67273;DHT22;54190;49.770;9.250;2022-10-16T00:56:17;15.40;99.90
67273;DHT22;54190;49.770;9.250;2022-10-16T00:58:43;15.40;99.90
67273;DHT22;54190;49.770;9.250;2022-10-16T01:01:09;15.40;99.90
67273;DHT22;54190;49.770;9.250;2022-10-16T01:03:36;15.40;99.90
67273;DHT22;54190;49.770;9.250;2022-10-16T01:06:23;15.40;99.90
67273;DHT22;54190;49.770;9.250;2022-10-16T01:11:36;15.30;99.90
67273;DHT22;54190;49.770;9.250;2022-10-16T01:14:30;15.30;99.90
67273;DHT22;54190;49.770;9.250;2022-10-16T01:17:18;15.30;99.90
67273;DHT22;54190;49.770;9.250;2022-10-16T01:20:07;15.30;99.90
67273;DHT22;54190;49.770;9.250;2022-10-16T01:28:14;15.30;99.90
67273;DHT22;54190;49.770;9.250;2022-10-16T01:30:42;15.30;99.90
67273;DHT22;54190;49.770;9.250;2022-10-16T01:33:20;15.30;99.90
67273;DHT22;54190;49.770;9.250;2022-10-16T01:35:52;15.30;99.90
67273;DHT22;54190;49.770;9.250;2022-10-16T01:38:33;15.30;99.90
67273;DHT22;54190;49.770;9.250;2022-10-16T01:46:22;15.30;99.90
67273;DHT22;54190;49.770;9.250;2022-10-16T01:48:49;15.30;99.90
67273;DHT22;54190;49.770;9.250;2022-10-16T01:51:17;15.30;99.90
67273;DHT22;54190;49.770;9.250;2022-10-16T01:53:56;15.30;99.90
67273;DHT22;54190;49.770;9.250;2022-10-16T01:56:23;15.30;99.90
67273;DHT22;54190;49.770;9.250;2022-10-16T01:58:57;15.30;99.90
67273;DHT22;54190;49.770;9.250;2022-10-16T02:01:26;15.30;99.90
67273;DHT22;54190;49.770;9.250;2022-10-16T02:03:55;15.30;99.90
67273;DHT22;54190;49.770;9.250;2022-10-16T02:06:23;15.30;99.90
67273;DHT22;54190;49.770;9.250;2022-10-16T02:08:49;15.30;99.90
67273;DHT22;54190;49.770;9.250;2022-10-16T02:11:14;15.30;99.90
67273;DHT22;54190;49.770;9.250;2022-10-16T02:13:54;15.30;99.90
67273;DHT22;54190;49.770;9.250;2022-10-16T02:16:20;15.30;99.90
67273;DHT22;54190;49.770;9.250;2022-10-16T02:18:50;15.30;99.90
67273;DHT22;54190;49.770;9.250;2022-10-16T02:21:23;15.40;99.90
67273;DHT22;54190;49.770;9.250;2022-10-16T02:26:49;15.30;99.90
67273;DHT22;54190;49.770;9.250;2022-10-16T02:29:20;15.30;99.90
67273;DHT22;54190;49.770;9.250;2022-10-16T02:31:49;15.30;99.90
67273;DHT22;54190;49.770;9.250;2022-10-16T02:34:17;15.30;99.90
67273;DHT22;54190;49.770;9.250;2022-10-16T02:36:44;15.30;99.90
67273;DHT22;54190;49.770;9.250;2022-10-16T02:39:11;15.30;99.90
67273;DHT22;54190;49.770;9.250;2022-10-16T02:41:37;15.30;99.90
67273;DHT22;54190;49.770;9.250;2022-10-16T02:44:03;15.30;99.90
67273;DHT22;54190;49.770;9.250;2022-10-16T02:46:29;15.30;99.90
67273;DHT22;54190;49.770;9.250;2022-10-16T02:48:55;15.30;99.90
67273;DHT22;54190;49.770;9.250;2022-10-16T02:51:20;15.40;99.90
67273;DHT22;54190;49.770;9.250;2022-10-16T02:53:47;15.40;99.90
67273;DHT22;54190;49.770;9.250;2022-10-16T02:56:13;15.40;99.90
67273;DHT22;54190;49.770;9.250;2022-10-16T02:58:38;15.40;99.90
67273;DHT22;54190;49.770;9.250;2022-10-16T03:01:04;15.40;99.90
67273;DHT22;54190;49.770;9.250;2022-10-16T03:03:30;15.40;99.90
67273;DHT22;54190;49.770;9.250;2022-10-16T03:05:55;15.40;99.90
67273;DHT22;54190;49.770;9.250;2022-10-16T03:08:21;15.40;99.90
67273;DHT22;54190;49.770;9.250;2022-10-16T03:10:49;15.40;99.90
67273;DHT22;54190;49.770;9.250;2022-10-16T03:13:15;15.40;99.90
67273;DHT22;54190;49.770;9.250;2022-10-16T03:15:41;15.40;99.90
67273;DHT22;54190;49.770;9.250;2022-10-16T03:18:07;15.40;99.90
67273;DHT22;54190;49.770;9.250;2022-10-16T03:20:33;15.30;99.90
67273;DHT22;54190;49.770;9.250;2022-10-16T03:22:59;15.40;99.90
67273;DHT22;54190;49.770;9.250;2022-10-16T03:25:24;15.40;99.90
67273;DHT22;54190;49.770;9.250;2022-10-16T03:27:50;15.30;99.90
67273;DHT22;54190;49.770;9.250;2022-10-16T03:30:16;15.30;99.90
67273;DHT22;54190;49.770;9.250;2022-10-16T03:32:43;15.30;99.90
67273;DHT22;54190;49.770;9.250;2022-10-16T03:35:09;15.30;99.90
67273;DHT22;54190;49.770;9.250;2022-10-16T03:37:35;15.30;99.90
67273;DHT22;54190;49.770;9.250;2022-10-16T03:40:00;15.30;99.90
67273;DHT22;54190;49.770;9.250;2022-10-16T03:42:26;15.30;99.90
67273;DHT22;54190;49.770;9.250;2022-10-16T03:44:52;15.30;99.90
67273;DHT22;54190;49.770;9.250;2022-10-16T03:47:18;15.30;99.90
67273;DHT22;54190;49.770;9.250;2022-10-16T03:49:47;15.20;99.90
67273;DHT22;54190;49.770;9.250;2022-10-16T03:52:13;15.20;99.90
67273;DHT22;54190;49.770;9.250;2022-10-16T03:54:39;15.20;99.90
67273;DHT22;54190;49.770;9.250;2022-10-16T03:57:05;15.20;99.90
67273;DHT22;54190;49.770;9.250;2022-10-16T03:59:30;15.20;99.90
67273;DHT22;54190;49.770;9.250;2022-10-16T04:01:56;15.20;99.90
67273;DHT22;54190;49.770;9.250;2022-10-16T04:04:23;15.20;99.90
67273;DHT22;54190;49.770;9.250;2022-10-16T04:06:49;15.20;99.90
67273;DHT22;54190;49.770;9.250;2022-10-16T04:09:15;15.20;99.90
67273;DHT22;54190;49.770;9.250;2022-10-16T04:11:41;15.20;99.90
67273;DHT22;54190;49.770;9.250;2022-10-16T04:14:06;15.20;99.90
67273;DHT22;54190;49.770;9.250;2022-10-16T04:16:32;15.20;99.90
67273;DHT22;54190;49.770;9.250;2022-10-16T04:18:58;15.20;99.90
67273;DHT22;54190;49.770;9.250;2022-10-16T04:21:23;15.20;99.90
67273;DHT22;54190;49.770;9.250;2022-10-16T04:23:49;15.20;99.90
67273;DHT22;54190;49.770;9.250;2022-10-16T04:26:15;15.20;99.90
67273;DHT22;54190;49.770;9.250;2022-10-16T04:28:41;15.20;99.90
67273;DHT22;54190;49.770;9.250;2022-10-16T04:31:07;15.20;99.90
67273;DHT22;54190;49.770;9.250;2022-10-16T04:33:33;15.20;99.90
67273;DHT22;54190;49.770;9.250;2022-10-16T04:36:00;15.20;99.90
67273;DHT22;54190;49.770;9.250;2022-10-16T04:38:26;15.20;99.90
67273;DHT22;54190;49.770;9.250;2022-10-16T04:40:52;15.20;99.90
67273;DHT22;54190;49.770;9.250;2022-10-16T04:43:18;15.20;99.90
67273;DHT22;54190;49.770;9.250;2022-10-16T04:45:43;15.20;99.90
67273;DHT22;54190;49.770;9.250;2022-10-16T04:48:09;15.20;99.90
67273;DHT22;54190;49.770;9.250;2022-10-16T04:50:35;15.20;99.90
67273;DHT22;54190;49.770;9.250;2022-10-16T04:53:05;15.20;99.90
67273;DHT22;54190;49.770;9.250;2022-10-16T04:55:31;15.20;99.90
67273;DHT22;54190;49.770;9.250;2022-10-16T04:57:56;15.20;99.90
67273;DHT22;54190;49.770;9.250;2022-10-16T05:00:22;15.20;99.90
67273;DHT22;54190;49.770;9.250;2022-10-16T05:02:50;15.20;99.90
67273;DHT22;54190;49.770;9.250;2022-10-16T05:05:15;15.10;99.90
67273;DHT22;54190;49.770;9.250;2022-10-16T05:07:41;15.10;99.90
67273;DHT22;54190;49.770;9.250;2022-10-16T05:10:07;15.10;99.90
67273;DHT22;54190;49.770;9.250;2022-10-16T05:12:33;15.10;99.90
67273;DHT22;54190;49.770;9.250;2022-10-16T05:14:59;15.10;99.90
67273;DHT22;54190;49.770;9.250;2022-10-16T05:17:25;15.10;99.90
67273;DHT22;54190;49.770;9.250;2022-10-16T05:19:51;15.20;99.90
67273;DHT22;54190;49.770;9.250;2022-10-16T05:22:19;15.20;99.90
67273;DHT22;54190;49.770;9.250;2022-10-16T05:24:45;15.20;99.90
67273;DHT22;54190;49.770;9.250;2022-10-16T05:27:10;15.20;99.90
67273;DHT22;54190;49.770;9.250;2022-10-16T05:29:37;15.20;99.90
67273;DHT22;54190;49.770;9.250;2022-10-16T05:32:02;15.20;99.90
67273;DHT22;54190;49.770;9.250;2022-10-16T05:34:28;15.20;99.90
67273;DHT22;54190;49.770;9.250;2022-10-16T05:36:54;15.20;99.90
67273;DHT22;54190;49.770;9.250;2022-10-16T05:39:19;15.20;99.90
67273;DHT22;54190;49.770;9.250;2022-10-16T05:41:46;15.20;99.90
67273;DHT22;54190;49.770;9.250;2022-10-16T05:44:11;15.20;99.90
67273;DHT22;54190;49.770;9.250;2022-10-16T05:46:37;15.20;99.90
67273;DHT22;54190;49.770;9.250;2022-10-16T05:49:03;15.10;99.90
67273;DHT22;54190;49.770;9.250;2022-10-16T05:51:29;15.20;99.90
67273;DHT22;54190;49.770;9.250;2022-10-16T05:53:54;15.10;99.90
67273;DHT22;54190;49.770;9.250;2022-10-16T05:56:20;15.10;99.90
67273;DHT22;54190;49.770;9.250;2022-10-16T05:58:46;15.10;99.90
67273;DHT22;54190;49.770;9.250;2022-10-16T06:01:14;15.20;99.90
67273;DHT22;54190;49.770;9.250;2022-10-16T06:03:40;15.20;99.90
67273;DHT22;54190;49.770;9.250;2022-10-16T06:06:21;15.20;99.90
67273;DHT22;54190;49.770;9.250;2022-10-16T06:08:47;15.10;99.90
67273;DHT22;54190;49.770;9.250;2022-10-16T06:11:22;15.10;99.90
67273;DHT22;54190;49.770;9.250;2022-10-16T06:13:57;15.10;99.90
67273;DHT22;54190;49.770;9.250;2022-10-16T06:16:24;15.10;99.90
67273;DHT22;54190;49.770;9.250;2022-10-16T06:18:52;15.10;99.90
67273;DHT22;54190;49.770;9.250;2022-10-16T06:21:20;15.10;99.90
67273;DHT22;54190;49.770;9.250;2022-10-16T06:23:46;15.10;99.90
67273;DHT22;54190;49.770;9.250;2022-10-16T06:26:16;15.10;99.90
67273;DHT22;54190;49.770;9.250;2022-10-16T06:28:41;15.10;99.90
67273;DHT22;54190;49.770;9.250;2022-10-16T06:31:08;15.10;99.90
67273;DHT22;54190;49.770;9.250;2022-10-16T06:33:35;15.10;99.90
67273;DHT22;54190;49.770;9.250;2022-10-16T06:38:31;15.10;99.90
67273;DHT22;54190;49.770;9.250;2022-10-16T06:40:57;15.10;99.90
67273;DHT22;54190;49.770;9.250;2022-10-16T06:43:22;15.10;99.90
67273;DHT22;54190;49.770;9.250;2022-10-16T06:45:55;15.10;99.90
67273;DHT22;54190;49.770;9.250;2022-10-16T06:48:22;15.10;99.90
67273;DHT22;54190;49.770;9.250;2022-10-16T06:51:01;15.10;99.90
67273;DHT22;54190;49.770;9.250;2022-10-16T06:53:29;15.20;99.90
67273;DHT22;54190;49.770;9.250;2022-10-16T06:55:55;15.10;99.90
67273;DHT22;54190;49.770;9.250;2022-10-16T06:58:22;15.20;99.90
67273;DHT22;54190;49.770;9.250;2022-10-16T07:00:48;15.20;99.90
67273;DHT22;54190;49.770;9.250;2022-10-16T07:03:13;15.20;99.90
67273;DHT22;54190;49.770;9.250;2022-10-16T07:05:41;15.20;99.90
67273;DHT22;54190;49.770;9.250;2022-10-16T07:08:07;15.30;99.90
67273;DHT22;54190;49.770;9.250;2022-10-16T07:10:34;15.30;99.90
67273;DHT22;54190;49.770;9.250;2022-10-16T07:12:59;15.30;99.90
67273;DHT22;54190;49.770;9.250;2022-10-16T07:15:26;15.40;99.90
67273;DHT22;54190;49.770;9.250;2022-10-16T07:17:52;15.40;99.90
67273;DHT22;54190;49.770;9.250;2022-10-16T07:20:17;15.40;99.90
67273;DHT22;54190;49.770;9.250;2022-10-16T07:22:44;15.40;99.90
67273;DHT22;54190;49.770;9.250;2022-10-16T07:25:10;15.50;99.90
67273;DHT22;54190;49.770;9.250;2022-10-16T07:27:37;15.60;99.90
67273;DHT22;54190;49.770;9.250;2022-10-16T07:30:03;15.60;99.90
67273;DHT22;54190;49.770;9.250;2022-10-16T07:32:29;15.60;99.90
67273;DHT22;54190;49.770;9.250;2022-10-16T07:34:55;15.70;99.90
67273;DHT22;54190;49.770;9.250;2022-10-16T07:37:21;15.70;99.90
67273;DHT22;54190;49.770;9.250;2022-10-16T07:39:47;15.70;99.90
67273;DHT22;54190;49.770;9.250;2022-10-16T07:42:13;15.70;99.90
67273;DHT22;54190;49.770;9.250;2022-10-16T07:44:39;15.80;99.90
67273;DHT22;54190;49.770;9.250;2022-10-16T07:47:06;15.80;99.90
67273;DHT22;54190;49.770;9.250;2022-10-16T07:49:31;15.80;99.90
67273;DHT22;54190;49.770;9.250;2022-10-16T07:51:57;15.80;99.90
67273;DHT22;54190;49.770;9.250;2022-10-16T07:54:23;15.80;99.90
67273;DHT22;54190;49.770;9.250;2022-10-16T07:56:49;15.80;99.90
67273;DHT22;54190;49.770;9.250;2022-10-16T07:59:14;15.80;99.90
67273;DHT22;54190;49.770;9.250;2022-10-16T08:01:40;15.90;99.90
67273;DHT22;54190;49.770;9.250;2022-10-16T08:04:08;15.90;99.90
67273;DHT22;54190;49.770;9.250;2022-10-16T08:06:38;15.90;99.90
67273;DHT22;54190;49.770;9.250;2022-10-16T08:09:05;15.90;99.90
67273;DHT22;54190;49.770;9.250;2022-10-16T08:11:31;15.90;99.90
67273;DHT22;54190;49.770;9.250;2022-10-16T08:13:57;15.90;99.90
67273;DHT22;54190;49.770;9.250;2022-10-16T08:16:22;16.00;99.90
67273;DHT22;54190;49.770;9.250;2022-10-16T08:18:48;16.10;99.90
67273;DHT22;54190;49.770;9.250;2022-10-16T08:21:17;16.10;99.90
67273;DHT22;54190;49.770;9.250;2022-10-16T08:23:43;16.10;99.90
67273;DHT22;54190;49.770;9.250;2022-10-16T08:26:10;16.00;99.90
67273;DHT22;54190;49.770;9.250;2022-10-16T08:28:36;16.10;99.90
67273;DHT22;54190;49.770;9.250;2022-10-16T08:31:10;16.20;99.90
67273;DHT22;54190;49.770;9.250;2022-10-16T08:33:37;16.20;99.90
67273;DHT22;54190;49.770;9.250;2022-10-16T08:36:04;16.20;99.90
67273;DHT22;54190;49.770;9.250;2022-10-16T08:38:32;16.20;99.90
67273;DHT22;54190;49.770;9.250;2022-10-16T08:43:49;16.30;99.90
67273;DHT22;54190;49.770;9.250;2022-10-16T08:49:02;16.40;99.90
67273;DHT22;54190;49.770;9.250;2022-10-16T08:51:35;16.40;99.90
67273;DHT22;54190;49.770;9.250;2022-10-16T08:54:06;16.40;99.90
67273;DHT22;54190;49.770;9.250;2022-10-16T08:56:32;16.40;99.90
67273;DHT22;54190;49.770;9.250;2022-10-16T08:58:59;16.40;99.90
67273;DHT22;54190;49.770;9.250;2022-10-16T09:01:37;16.50;99.90
67273;DHT22;54190;49.770;9.250;2022-10-16T09:06:58;16.50;99.90
67273;DHT22;54190;49.770;9.250;2022-10-16T09:12:15;16.50;99.90
67273;DHT22;54190;49.770;9.250;2022-10-16T09:18:29;16.50;99.90
67273;DHT22;54190;49.770;9.250;2022-10-16T09:21:07;16.50;99.90
67273;DHT22;54190;49.770;9.250;2022-10-16T09:23:36;16.50;99.90
67273;DHT22;54190;49.770;9.250;2022-10-16T09:26:03;16.50;99.90
67273;DHT22;54190;49.770;9.250;2022-10-16T09:28:30;16.50;99.90
67273;DHT22;54190;49.770;9.250;2022-10-16T09:30:56;16.50;99.90
67273;DHT22;54190;49.770;9.250;2022-10-16T09:33:25;16.50;99.90
67273;DHT22;54190;49.770;9.250;2022-10-16T09:35:54;16.50;99.90
67273;DHT22;54190;49.770;9.250;2022-10-16T09:40:55;16.50;99.90
67273;DHT22;54190;49.770;9.250;2022-10-16T09:43:25;16.50;99.90
67273;DHT22;54190;49.770;9.250;2022-10-16T09:45:59;16.50;99.90
67273;DHT22;54190;49.770;9.250;2022-10-16T09:48:31;16.50;99.90
67273;DHT22;54190;49.770;9.250;2022-10-16T09:50:59;16.50;99.90
67273;DHT22;54190;49.770;9.250;2022-10-16T09:53:37;16.40;99.90
67273;DHT22;54190;49.770;9.250;2022-10-16T09:56:03;16.40;99.90
67273;DHT22;54190;49.770;9.250;2022-10-16T09:58:32;16.30;99.90
67273;DHT22;54190;49.770;9.250;2022-10-16T10:00:59;16.30;99.90
67273;DHT22;54190;49.770;9.250;2022-10-16T10:03:37;16.30;99.90
67273;DHT22;54190;49.770;9.250;2022-10-16T10:09:02;16.40;99.90
67273;DHT22;54190;49.770;9.250;2022-10-16T10:11:43;16.50;99.90
67273;DHT22;54190;49.770;9.250;2022-10-16T10:14:24;16.50;99.90
67273;DHT22;54190;49.770;9.250;2022-10-16T10:16:52;16.50;99.90
67273;DHT22;54190;49.770;9.250;2022-10-16T10:19:23;16.60;99.90
67273;DHT22;54190;49.770;9.250;2022-10-16T10:21:50;16.60;99.90
67273;DHT22;54190;49.770;9.250;2022-10-16T10:24:19;16.70;99.90
67273;DHT22;54190;49.770;9.250;2022-10-16T10:26:54;16.80;99.90
67273;DHT22;54190;49.770;9.250;2022-10-16T10:29:41;16.90;99.90
67273;DHT22;54190;49.770;9.250;2022-10-16T10:44:35;17.70;99.90
67273;DHT22;54190;49.770;9.250;2022-10-16T10:46:35;17.90;99.90
67273;DHT22;54190;49.770;9.250;2022-10-16T10:49:23;18.10;99.90
67273;DHT22;54190;49.770;9.250;2022-10-16T10:54:27;18.20;99.90
67273;DHT22;54190;49.770;9.250;2022-10-16T10:57:02;18.20;99.90
67273;DHT22;54190;49.770;9.250;2022-10-16T11:02:15;18.40;99.90
67273;DHT22;54190;49.770;9.250;2022-10-16T11:05:21;18.50;99.90
67273;DHT22;54190;49.770;9.250;2022-10-16T11:08:00;18.70;99.90
67273;DHT22;54190;49.770;9.250;2022-10-16T11:10:42;18.70;99.90
67273;DHT22;54190;49.770;9.250;2022-10-16T11:13:36;18.70;99.90
67273;DHT22;54190;49.770;9.250;2022-10-16T11:16:14;18.80;99.90
67273;DHT22;54190;49.770;9.250;2022-10-16T11:21:15;19.00;99.90
67273;DHT22;54190;49.770;9.250;2022-10-16T11:23:44;19.10;99.90
67273;DHT22;54190;49.770;9.250;2022-10-16T11:26:25;19.20;99.90
67273;DHT22;54190;49.770;9.250;2022-10-16T11:28:55;19.20;99.90
67273;DHT22;54190;49.770;9.250;2022-10-16T11:31:24;19.20;99.90
67273;DHT22;54190;49.770;9.250;2022-10-16T11:36:45;19.20;99.90
67273;DHT22;54190;49.770;9.250;2022-10-16T11:39:29;19.30;99.90
67273;DHT22;54190;49.770;9.250;2022-10-16T11:49:59;19.70;99.90
67273;DHT22;54190;49.770;9.250;2022-10-16T11:52:35;19.90;99.90
67273;DHT22;54190;49.770;9.250;2022-10-16T11:55:21;19.90;99.90
67273;DHT22;54190;49.770;9.250;2022-10-16T11:57:54;19.90;99.90
67273;DHT22;54190;49.770;9.250;2022-10-16T12:00:27;19.90;99.90
67273;DHT22;54190;49.770;9.250;2022-10-16T12:08:13;20.10;99.90
67273;DHT22;54190;49.770;9.250;2022-10-16T12:10:42;20.20;99.90
67273;DHT22;54190;49.770;9.250;2022-10-16T12:13:37;20.30;99.90
67273;DHT22;54190;49.770;9.250;2022-10-16T12:18:40;20.70;99.90
67273;DHT22;54190;49.770;9.250;2022-10-16T12:21:07;20.80;99.90
67273;DHT22;54190;49.770;9.250;2022-10-16T12:23:48;20.80;99.90
67273;DHT22;54190;49.770;9.250;2022-10-16T12:26:24;20.80;99.90
67273;DHT22;54190;49.770;9.250;2022-10-16T12:28:50;20.90;99.90
67273;DHT22;54190;49.770;9.250;2022-10-16T12:31:17;20.90;99.90
67273;DHT22;54190;49.770;9.250;2022-10-16T12:34:37;20.90;99.90
67273;DHT22;54190;49.770;9.250;2022-10-16T12:36:43;20.80;99.90
67273;DHT22;54190;49.770;9.250;2022-10-16T12:39:21;20.80;99.90
67273;DHT22;54190;49.770;9.250;2022-10-16T12:41:47;20.80;99.90
67273;DHT22;54190;49.770;9.250;2022-10-16T12:44:25;20.70;99.90
67273;DHT22;54190;49.770;9.250;2022-10-16T12:46:55;20.90;99.90
67273;DHT22;54190;49.770;9.250;2022-10-16T12:49:29;21.00;99.90
67273;DHT22;54190;49.770;9.250;2022-10-16T12:51:56;21.00;99.90
67273;DHT22;54190;49.770;9.250;2022-10-16T12:54:29;21.00;99.90
67273;DHT22;54190;49.770;9.250;2022-10-16T13:11:33;21.00;99.90
67273;DHT22;54190;49.770;9.250;2022-10-16T13:17:09;20.90;99.90
67273;DHT22;54190;49.770;9.250;2022-10-16T13:22:25;20.90;99.90
67273;DHT22;54190;49.770;9.250;2022-10-16T13:29:53;20.80;99.90
67273;DHT22;54190;49.770;9.250;2022-10-16T13:32:26;20.80;99.90
67273;DHT22;54190;49.770;9.250;2022-10-16T13:34:52;20.80;99.90
67273;DHT22;54190;49.770;9.250;2022-10-16T13:37:22;20.80;99.90
67273;DHT22;54190;49.770;9.250;2022-10-16T13:39:48;20.70;99.90
67273;DHT22;54190;49.770;9.250;2022-10-16T13:44:50;20.70;99.90
67273;DHT22;54190;49.770;9.250;2022-10-16T13:47:21;20.70;99.90
67273;DHT22;54190;49.770;9.250;2022-10-16T13:50:00;20.70;99.90
67273;DHT22;54190;49.770;9.250;2022-10-16T13:52:27;20.60;99.90
67273;DHT22;54190;49.770;9.250;2022-10-16T13:54:52;20.60;99.90
67273;DHT22;54190;49.770;9.250;2022-10-16T13:57:22;20.50;99.90
67273;DHT22;54190;49.770;9.250;2022-10-16T13:59:48;20.60;99.90
67273;DHT22;54190;49.770;9.250;2022-10-16T14:02:35;20.60;99.90
67273;DHT22;54190;49.770;9.250;2022-10-16T14:05:02;20.60;99.90
67273;DHT22;54190;49.770;9.250;2022-10-16T14:07:31;20.60;99.90
67273;DHT22;54190;49.770;9.250;2022-10-16T14:10:05;20.60;99.90
67273;DHT22;54190;49.770;9.250;2022-10-16T14:12:32;20.50;99.90
67273;DHT22;54190;49.770;9.250;2022-10-16T14:14:59;20.50;99.90
67273;DHT22;54190;49.770;9.250;2022-10-16T14:17:26;20.50;99.90
67273;DHT22;54190;49.770;9.250;2022-10-16T14:19:55;20.40;99.90
67273;DHT22;54190;49.770;9.250;2022-10-16T14:22:35;20.30;99.90
67273;DHT22;54190;49.770;9.250;2022-10-16T14:25:26;20.20;99.90
67273;DHT22;54190;49.770;9.250;2022-10-16T14:30:51;20.20;99.90
67273;DHT22;54190;49.770;9.250;2022-10-16T14:36:14;20.10;99.90
67273;DHT22;54190;49.770;9.250;2022-10-16T14:38:47;20.10;99.90
67273;DHT22;54190;49.770;9.250;2022-10-16T14:41:15;20.10;99.90
67273;DHT22;54190;49.770;9.250;2022-10-16T14:43:42;20.10;99.90
67273;DHT22;54190;49.770;9.250;2022-10-16T14:46:14;20.10;99.90
67273;DHT22;54190;49.770;9.250;2022-10-16T14:49:19;20.10;99.90
67273;DHT22;54190;49.770;9.250;2022-10-16T14:51:46;20.10;99.90
67273;DHT22;54190;49.770;9.250;2022-10-16T14:54:16;20.10;99.90
67273;DHT22;54190;49.770;9.250;2022-10-16T14:56:54;20.10;99.90
67273;DHT22;54190;49.770;9.250;2022-10-16T15:01:58;20.00;99.90
67273;DHT22;54190;49.770;9.250;2022-10-16T15:04:23;20.00;99.90
67273;DHT22;54190;49.770;9.250;2022-10-16T15:06:49;19.90;99.90
67273;DHT22;54190;49.770;9.250;2022-10-16T15:09:15;19.90;99.90
67273;DHT22;54190;49.770;9.250;2022-10-16T15:11:41;19.80;99.90
67273;DHT22;54190;49.770;9.250;2022-10-16T15:14:11;19.80;99.90
67273;DHT22;54190;49.770;9.250;2022-10-16T15:16:39;19.80;99.90
67273;DHT22;54190;49.770;9.250;2022-10-16T15:19:04;19.80;99.90
67273;DHT22;54190;49.770;9.250;2022-10-16T15:21:32;19.70;99.90
67273;DHT22;54190;49.770;9.250;2022-10-16T15:23:59;19.70;99.90
67273;DHT22;54190;49.770;9.250;2022-10-16T15:26:29;19.60;99.90
67273;DHT22;54190;49.770;9.250;2022-10-16T15:28:55;19.60;99.90
67273;DHT22;54190;49.770;9.250;2022-10-16T15:31:21;19.50;99.90
67273;DHT22;54190;49.770;9.250;2022-10-16T15:33:50;19.50;99.90
67273;DHT22;54190;49.770;9.250;2022-10-16T15:36:25;19.50;99.90
67273;DHT22;54190;49.770;9.250;2022-10-16T15:38:51;19.40;99.90
67273;DHT22;54190;49.770;9.250;2022-10-16T15:41:18;19.30;99.90
67273;DHT22;54190;49.770;9.250;2022-10-16T15:43:43;19.30;99.90
67273;DHT22;54190;49.770;9.250;2022-10-16T15:46:11;19.30;99.90
67273;DHT22;54190;49.770;9.250;2022-10-16T15:48:39;19.30;99.90
67273;DHT22;54190;49.770;9.250;2022-10-16T15:51:07;19.30;99.90
67273;DHT22;54190;49.770;9.250;2022-10-16T15:53:33;19.30;99.90
67273;DHT22;54190;49.770;9.250;2022-10-16T15:56:06;19.30;99.90
67273;DHT22;54190;49.770;9.250;2022-10-16T15:58:32;19.20;99.90
67273;DHT22;54190;49.770;9.250;2022-10-16T16:00:59;19.10;99.90
67273;DHT22;54190;49.770;9.250;2022-10-16T16:03:29;19.10;99.90
67273;DHT22;54190;49.770;9.250;2022-10-16T16:05:55;19.10;99.90
67273;DHT22;54190;49.770;9.250;2022-10-16T16:08:21;19.00;99.90
67273;DHT22;54190;49.770;9.250;2022-10-16T16:11:11;19.00;99.90
67273;DHT22;54190;49.770;9.250;2022-10-16T16:13:37;18.90;99.90
67273;DHT22;54190;49.770;9.250;2022-10-16T16:16:12;18.90;99.90
67273;DHT22;54190;49.770;9.250;2022-10-16T16:18:38;18.90;99.90
67273;DHT22;54190;49.770;9.250;2022-10-16T16:21:04;18.80;99.90
67273;DHT22;54190;49.770;9.250;2022-10-16T16:23:30;18.80;99.90
67273;DHT22;54190;49.770;9.250;2022-10-16T16:28:52;18.60;99.90
67273;DHT22;54190;49.770;9.250;2022-10-16T16:31:18;18.50;99.90
67273;DHT22;54190;49.770;9.250;2022-10-16T16:33:44;18.50;99.90
67273;DHT22;54190;49.770;9.250;2022-10-16T16:36:10;18.40;99.90
67273;DHT22;54190;49.770;9.250;2022-10-16T16:38:35;18.30;99.90
67273;DHT22;54190;49.770;9.250;2022-10-16T16:41:18;18.30;99.90
67273;DHT22;54190;49.770;9.250;2022-10-16T16:43:44;18.20;99.90
67273;DHT22;54190;49.770;9.250;2022-10-16T16:46:11;18.20;99.90
67273;DHT22;54190;49.770;9.250;2022-10-16T16:48:37;18.20;99.90
67273;DHT22;54190;49.770;9.250;2022-10-16T16:51:14;18.10;99.90
67273;DHT22;54190;49.770;9.250;2022-10-16T16:53:49;18.10;99.90
67273;DHT22;54190;49.770;9.250;2022-10-16T16:56:17;18.00;99.90
67273;DHT22;54190;49.770;9.250;2022-10-16T16:58:48;18.00;99.90
67273;DHT22;54190;49.770;9.250;2022-10-16T17:01:14;17.90;99.90
67273;DHT22;54190;49.770;9.250;2022-10-16T17:03:42;17.90;99.90
67273;DHT22;54190;49.770;9.250;2022-10-16T17:06:12;17.80;99.90
67273;DHT22;54190;49.770;9.250;2022-10-16T17:08:40;17.70;99.90
67273;DHT22;54190;49.770;9.250;2022-10-16T17:11:11;17.80;99.90
67273;DHT22;54190;49.770;9.250;2022-10-16T17:13:37;17.70;99.90
67273;DHT22;54190;49.770;9.250;2022-10-16T17:16:04;17.70;99.90
67273;DHT22;54190;49.770;9.250;2022-10-16T17:18:31;17.60;99.90
67273;DHT22;54190;49.770;9.250;2022-10-16T17:21:01;17.60;99.90
67273;DHT22;54190;49.770;9.250;2022-10-16T17:23:26;17.60;99.90
67273;DHT22;54190;49.770;9.250;2022-10-16T17:25:53;17.50;99.90
67273;DHT22;54190;49.770;9.250;2022-10-16T17:28:19;17.50;99.90
67273;DHT22;54190;49.770;9.250;2022-10-16T17:30:45;17.50;99.90
67273;DHT22;54190;49.770;9.250;2022-10-16T17:33:11;17.40;99.90
67273;DHT22;54190;49.770;9.250;2022-10-16T17:35:39;17.40;99.90
67273;DHT22;54190;49.770;9.250;2022-10-16T17:38:05;17.30;99.90
67273;DHT22;54190;49.770;9.250;2022-10-16T17:40:31;17.30;99.90
67273;DHT22;54190;49.770;9.250;2022-10-16T17:43:04;17.30;99.90